Airfield :
LOGIN :

Register | Disclaimer

   EN    FR    IT 

 










Legend :    VFR   Marginal VFR   IFR   Intensive IFR   Very Intensive IFR
Visi :
Ceiling :
>= 8 km
>= 3000ft
5 to 8 km
1000 to 3000 ft
1500m to 5 km
500 to 1000 ft
800 to 1500m
200 to 500 ft
< 800m
< 200 ft
Symbols :   Thunderstorms  Fog  Heavy snow  Heavy precipitations  Wind > 20 kt
SIGMETs :     Misc.  Thunderstorms  Icing  Turbulence  Mountain Waves  Volcanic Ashes






- Airport Elevation : 146 ft
- IATA code : RKE


EKRK - Roskilde Tune

CURRENT METAR :
  • 180320Z AUTO 12006KT 4900 -RA BR OVC003/// 12/12 Q1009 RERA

EXPIRED METARs :
  • 180250Z AUTO 15004KT 1900 RA BKN003/// OVC056/// 11/11 Q1009
  • 180220Z AUTO 12005KT 2500 -RA BR SCT002/// OVC031/// 11/11 Q1009
  • 180150Z AUTO 11004KT 0350 R11/1000N R29/1400U FG VV003 11/11 Q1009
  • 180120Z AUTO 10004KT 0250 R11/0900N R29/1000N FG VV002 10/10 Q1010
  • 180050Z AUTO 10003KT 0350 R11/1300U R29/P1500D FG BKN002/// BKN087/// 10/10 Q1010
  • 180020Z AUTO 09001KT 0250 R11/1300D R29/0700N FG VV002 10/10 Q1010

TAF TAF EKRK
Valid from the 18 at 03:00 until the 18 at 12:00 UTC


180221Z 1803/1812 VRB02KT 0100 FG VV001
TEMPO 1803/1804 7000 NSW FEW004
BECMG 1804/1806 15010KT 1200 -RADZ BR BKN004
TEMPO 1806/1810 6000 RA BKN010
BECMG 1810/1812 8000 NSW FEW008 SCT020



MET'MAP, your aeronautical weather chart ! - Copyright ORBIFLY December 2007 - Disclaimer

ORBIFLY MET'MAP TEAM :

Programming & Development : Alexandra Zaïnal
Concept & Development : Baudouin d'Aumeries
Co-Development & Prog : Marc-Olivier Méhu
Technical & hardware support : Manuel Goepfert

Contact : metmap@orbifly.com




SOURCES & CREDITS :

   NOAA